createdAt,value
2022-08-11T00:00:18.437Z,100411.69
2022-08-11T00:03:26.564Z,100409.55
2022-08-11T00:08:53.420Z,100407.27
2022-08-11T00:11:21.548Z,100407.79
2022-08-11T00:14:17.554Z,100407.64
2022-08-11T00:18:07.125Z,100409.02
2022-08-11T00:20:39.397Z,100404.89
2022-08-11T00:23:08.116Z,100406.02
2022-08-11T00:25:51.259Z,100403.16
2022-08-11T00:28:36.619Z,100402.55
2022-08-11T00:31:34.262Z,100401.23
2022-08-11T00:34:12.365Z,100396.89
2022-08-11T00:36:52.848Z,100393.06
2022-08-11T00:39:36.160Z,100390.14
2022-08-11T00:42:18.497Z,100393.38
2022-08-11T00:45:05.474Z,100392.69
2022-08-11T00:48:03.486Z,100388.80
2022-08-11T00:50:58.857Z,100386.08
2022-08-11T00:53:49.018Z,100387.92
2022-08-11T00:56:49.574Z,100388.96
2022-08-11T00:59:37.706Z,100386.48
2022-08-11T01:02:23.417Z,100388.64
2022-08-11T01:05:35.778Z,100383.91
2022-08-11T01:08:24.481Z,100382.10
2022-08-11T01:11:02.114Z,100387.19
2022-08-11T01:13:36.947Z,100388.61
2022-08-11T01:16:23.674Z,100386.77
2022-08-11T01:18:55.116Z,100383.23
2022-08-11T01:21:40.838Z,100382.38
2022-08-11T01:24:22.478Z,100384.96
2022-08-11T01:27:19.388Z,100384.87
2022-08-11T01:30:05.435Z,100385.84
2022-08-11T01:32:47.899Z,100388.73
2022-08-11T01:35:31.482Z,100388.84
2022-08-11T01:38:20.803Z,100392.38
2022-08-11T01:40:59.019Z,100396.15
2022-08-11T01:43:57.284Z,100396.40
2022-08-11T01:46:54.244Z,100390.27
2022-08-11T01:50:09.862Z,100390.00
2022-08-11T01:53:03.201Z,100387.14
2022-08-11T01:55:39.634Z,100388.23
2022-08-11T01:58:43.507Z,100385.71
2022-08-11T02:01:17.151Z,100385.73
2022-08-11T02:04:06.124Z,100391.38
2022-08-11T02:07:03.382Z,100388.46
2022-08-11T02:09:51.968Z,100389.98
2022-08-11T02:12:43.792Z,100389.85
2022-08-11T02:15:35.115Z,100386.91
2022-08-11T02:18:07.598Z,100386.84
2022-08-11T02:21:11.687Z,100389.26
2022-08-11T02:24:05.449Z,100385.73
2022-08-11T02:27:05.200Z,100391.02
2022-08-11T02:29:34.155Z,100388.70
2022-08-11T02:32:32.368Z,100384.48
2022-08-11T02:35:14.087Z,100382.09
2022-08-11T02:38:11.076Z,100381.55
2022-08-11T02:41:00.886Z,100387.48
2022-08-11T02:43:27.925Z,100388.68
2022-08-11T02:46:06.467Z,100389.35
2022-08-11T02:49:14.702Z,100388.50
2022-08-11T02:51:55.093Z,100388.51
2022-08-11T02:54:22.692Z,100383.54
2022-08-11T02:56:51.752Z,100382.27
2022-08-11T02:59:49.726Z,100382.05
2022-08-11T03:02:28.974Z,100381.01
2022-08-11T03:05:07.079Z,100376.14
2022-08-11T03:08:04.849Z,100379.17
2022-08-11T03:11:10.955Z,100376.70
2022-08-11T03:14:16.159Z,100376.29
2022-08-11T03:16:50.251Z,100378.51
2022-08-11T03:19:37.376Z,100380.58
2022-08-11T03:22:47.961Z,100380.12
2022-08-11T03:25:56.424Z,100377.38
2022-08-11T03:28:29.667Z,100378.70
2022-08-11T03:31:08.388Z,100380.45
2022-08-11T03:37:56.018Z,100382.38
2022-08-11T03:41:00.987Z,100381.67
2022-08-11T03:43:58.090Z,100386.39
2022-08-11T03:46:44.882Z,100387.60
2022-08-11T03:49:23.185Z,100389.45
2022-08-11T03:51:54.868Z,100390.23
2022-08-11T03:54:33.053Z,100382.95
2022-08-11T03:57:25.865Z,100380.95
2022-08-11T03:59:58.982Z,100383.58
2022-08-11T04:02:34.983Z,100384.81
2022-08-11T04:05:23.755Z,100385.77
2022-08-11T04:08:12.033Z,100381.67
2022-08-11T04:10:49.799Z,100382.41
2022-08-11T04:13:49.576Z,100377.33
2022-08-11T04:16:50.342Z,100375.64
2022-08-11T04:19:53.317Z,100379.60
2022-08-11T04:22:42.023Z,100380.22
2022-08-11T04:25:34.663Z,100383.39
2022-08-11T04:28:28.909Z,100381.41
2022-08-11T04:31:50.755Z,100384.61
2022-08-11T04:34:39.192Z,100381.73
2022-08-11T04:37:34.818Z,100382.61
2022-08-11T04:40:23.740Z,100380.92
2022-08-11T04:43:28.226Z,100382.59
2022-08-11T04:47:02.827Z,100382.39
2022-08-11T04:53:28.434Z,100384.45
2022-08-11T05:00:33.042Z,100385.23
2022-08-11T05:03:21.691Z,100387.83
2022-08-11T05:06:01.117Z,100380.52
2022-08-11T05:09:31.418Z,100383.61
2022-08-11T05:12:32.716Z,100378.48
2022-08-11T05:18:31.154Z,100373.02
2022-08-11T05:21:44.796Z,100376.07
2022-08-11T05:24:47.382Z,100377.50
2022-08-11T05:27:41.304Z,100377.06
2022-08-11T05:30:46.182Z,100378.09
2022-08-11T05:34:07.536Z,100378.86
2022-08-11T05:36:52.234Z,100377.31
2022-08-11T05:39:48.393Z,100371.12
2022-08-11T05:42:43.878Z,100371.40
2022-08-11T05:45:54.833Z,100371.04
2022-08-11T05:48:54.951Z,100368.96
2022-08-11T06:07:15.833Z,100363.86
2022-08-11T06:10:10.749Z,100363.19
2022-08-11T06:12:52.057Z,100362.62
2022-08-11T06:15:22.255Z,100364.44
2022-08-11T06:18:05.281Z,100364.91
2022-08-11T06:20:45.773Z,100359.02
2022-08-11T06:23:18.192Z,100360.88
2022-08-11T06:25:56.942Z,100358.32
2022-08-11T06:28:38.052Z,100357.16
2022-08-11T06:31:12.055Z,100355.32
2022-08-11T06:34:04.333Z,100360.02
2022-08-11T06:36:44.253Z,100362.48
2022-08-11T06:39:45.670Z,100362.86
2022-08-11T06:42:31.360Z,100372.83
2022-08-11T06:45:10.981Z,100372.60
2022-08-11T06:47:42.247Z,100371.79
2022-08-11T06:50:29.496Z,100374.77
2022-08-11T06:52:59.376Z,100377.15
2022-08-11T06:55:56.697Z,100374.73
2022-08-11T06:58:52.278Z,100376.32
2022-08-11T07:01:48.554Z,100378.08
2022-08-11T07:04:28.417Z,100378.43
2022-08-11T07:07:40.611Z,100378.20
2022-08-11T07:10:37.192Z,100377.55
2022-08-11T07:13:39.376Z,100370.93
2022-08-11T07:16:24.326Z,100368.67
2022-08-11T07:19:32.730Z,100370.59
2022-08-11T07:22:37.052Z,100368.05
2022-08-11T07:25:34.235Z,100365.64
2022-08-11T07:28:38.413Z,100364.61
2022-08-11T07:34:25.026Z,100364.22
2022-08-11T07:37:00.351Z,100362.92
2022-08-11T07:39:47.486Z,100353.04
2022-08-11T07:42:19.927Z,100352.64
2022-08-11T07:45:07.459Z,100349.48
2022-08-11T07:48:01.640Z,100348.61
2022-08-11T07:53:31.253Z,100348.59
2022-08-11T07:55:59.508Z,100344.01
2022-08-11T07:58:55.046Z,100345.11
2022-08-11T08:01:44.003Z,100340.94
2022-08-11T08:04:35.829Z,100334.57
2022-08-11T08:07:24.200Z,100336.13
2022-08-11T08:10:09.923Z,100332.80
2022-08-11T08:13:00.299Z,100333.80
2022-08-11T08:15:46.081Z,100341.32
2022-08-11T08:18:25.949Z,100337.17
2022-08-11T08:20:54.897Z,100333.33
2022-08-11T08:23:35.153Z,100331.67
2022-08-11T08:26:03.783Z,100329.13
2022-08-11T08:28:32.748Z,100328.12
2022-08-11T08:31:00.140Z,100324.55
2022-08-11T08:33:30.469Z,100321.27
2022-08-11T08:36:15.778Z,100324.55
2022-08-11T08:38:48.956Z,100320.69
2022-08-11T08:41:24.376Z,100317.55
2022-08-11T08:43:53.407Z,100319.21
2022-08-11T08:46:40.545Z,100322.86
2022-08-11T08:49:09.286Z,100324.85
2022-08-11T08:52:01.405Z,100325.98
2022-08-11T08:54:28.579Z,100317.86
2022-08-11T08:56:56.075Z,100322.60
2022-08-11T08:59:25.712Z,100315.46
2022-08-11T09:02:01.532Z,100311.78
2022-08-11T09:04:29.502Z,100311.25
2022-08-11T09:07:02.939Z,100307.80
2022-08-11T09:09:35.028Z,100311.05
2022-08-11T09:12:08.097Z,100312.15
2022-08-11T09:14:59.610Z,100317.17
2022-08-11T09:17:45.454Z,100303.23
2022-08-11T09:20:22.138Z,100304.76
2022-08-11T09:26:20.691Z,100288.00
2022-08-11T09:28:49.573Z,100291.02
2022-08-11T09:31:16.325Z,100295.61
2022-08-11T09:33:46.051Z,100290.16
2022-08-11T09:36:32.494Z,100289.30
2022-08-11T09:39:25.137Z,100285.35
2022-08-11T09:42:00.582Z,100281.45
2022-08-11T09:44:51.169Z,100273.63
2022-08-11T09:47:25.005Z,100266.55
2022-08-11T09:49:55.871Z,100275.43
2022-08-11T09:52:29.425Z,100271.09
2022-08-11T09:54:59.646Z,100272.50
2022-08-11T09:57:45.517Z,100267.58
2022-08-11T10:00:14.575Z,100258.66
2022-08-11T10:02:54.183Z,100252.04
2022-08-11T10:05:43.430Z,100257.90
2022-08-11T10:08:12.470Z,100255.44
2022-08-11T10:10:48.258Z,100256.75
2022-08-11T10:14:31.647Z,100255.36
2022-08-11T10:16:15.534Z,100249.54
2022-08-11T10:18:56.146Z,100257.16
2022-08-11T10:21:33.974Z,100255.76
2022-08-11T10:24:19.550Z,100256.39
2022-08-11T10:26:54.239Z,100243.77
2022-08-11T10:29:45.265Z,100248.98
2022-08-11T10:32:57.910Z,100245.10
2022-08-11T10:35:28.591Z,100234.02
2022-08-11T10:38:06.518Z,100232.75
2022-08-11T10:40:39.306Z,100237.09
2022-08-11T10:43:10.160Z,100239.16
2022-08-11T10:45:56.186Z,100228.80
2022-08-11T10:48:24.591Z,100225.27
2022-08-11T10:51:10.175Z,100220.52
2022-08-11T10:54:02.745Z,100231.76
2022-08-11T10:57:07.645Z,100220.46
2022-08-11T10:59:37.826Z,100212.48
2022-08-11T11:02:09.031Z,100207.05
2022-08-11T11:04:38.755Z,100206.16
2022-08-11T11:07:13.359Z,100213.05
2022-08-11T11:09:50.712Z,100210.61
2022-08-11T11:12:42.478Z,100206.27
2022-08-11T11:15:29.160Z,100201.48
2022-08-11T11:18:01.045Z,100196.36
2022-08-11T11:20:34.463Z,100191.70
2022-08-11T11:23:13.479Z,100191.02
2022-08-11T11:26:14.956Z,100196.20
2022-08-11T11:29:00.327Z,100191.98
2022-08-11T11:31:26.728Z,100196.40
2022-08-11T11:34:13.491Z,100189.35
2022-08-11T11:36:52.257Z,100182.40
2022-08-11T11:39:21.594Z,100189.15
2022-08-11T11:41:52.602Z,100180.36
2022-08-11T11:44:19.954Z,100176.71
2022-08-11T11:46:47.010Z,100177.27
2022-08-11T11:49:17.121Z,100178.52
2022-08-11T11:51:49.916Z,100179.55
2022-08-11T11:54:28.052Z,100179.48
2022-08-11T11:56:55.824Z,100179.20
2022-08-11T11:59:43.053Z,100170.08
2022-08-11T12:02:12.708Z,100160.61
2022-08-11T12:04:43.865Z,100156.10
2022-08-11T12:07:30.090Z,100155.95
2022-08-11T12:09:57.987Z,100153.17
2022-08-11T12:12:44.331Z,100149.99
2022-08-11T12:15:11.767Z,100150.70
2022-08-11T12:17:39.097Z,100152.23
2022-08-11T12:20:07.081Z,100155.80
2022-08-11T12:23:14.705Z,100152.23
2022-08-11T12:26:27.240Z,100143.81
2022-08-11T12:29:00.567Z,100146.08
2022-08-11T12:31:30.715Z,100143.91
2022-08-11T12:34:01.836Z,100150.40
2022-08-11T12:36:29.159Z,100142.91
2022-08-11T12:38:55.923Z,100141.17
2022-08-11T12:41:41.387Z,100137.38
2022-08-11T12:44:29.128Z,100138.55
2022-08-11T12:46:59.148Z,100133.94
2022-08-11T12:49:46.269Z,100130.50
2022-08-11T12:52:17.153Z,100129.37
2022-08-11T12:54:53.779Z,100127.08
2022-08-11T12:57:44.613Z,100133.02
2022-08-11T13:00:30.586Z,100126.74
2022-08-11T13:03:17.499Z,100122.28
2022-08-11T13:05:46.383Z,100124.11
2022-08-11T13:08:16.966Z,100123.91
2022-08-11T13:11:03.312Z,100122.64
2022-08-11T13:13:55.406Z,100132.36
2022-08-11T13:16:31.071Z,100115.09
2022-08-11T13:19:00.287Z,100112.77
2022-08-11T13:21:27.861Z,100116.02
2022-08-11T13:23:59.640Z,100103.43
2022-08-11T13:26:43.383Z,100099.04
2022-08-11T13:29:21.789Z,100099.55
2022-08-11T13:31:49.401Z,100098.11
2022-08-11T13:34:17.656Z,100100.69
2022-08-11T13:36:45.260Z,100099.00
2022-08-11T13:39:13.575Z,100097.62
2022-08-11T13:41:43.373Z,100099.65
2022-08-11T13:44:12.641Z,100098.84
2022-08-11T13:46:45.684Z,100096.61
2022-08-11T13:49:15.487Z,100085.70
2022-08-11T13:51:42.928Z,100087.98
2022-08-11T13:54:10.643Z,100092.44
2022-08-11T13:56:41.358Z,100091.54
2022-08-11T13:59:10.833Z,100089.52
2022-08-11T14:02:19.407Z,100093.03
2022-08-11T14:04:44.268Z,100091.89
2022-08-11T14:07:14.060Z,100091.31
2022-08-11T14:09:42.988Z,100089.45
2022-08-11T14:12:32.582Z,100088.13
2022-08-11T14:15:08.086Z,100088.23
2022-08-11T14:17:48.987Z,100083.14
2022-08-11T14:20:38.420Z,100080.39
2022-08-11T14:23:04.825Z,100079.73
2022-08-11T14:26:00.564Z,100079.29
2022-08-11T14:28:31.903Z,100076.48
2022-08-11T14:31:04.609Z,100075.58
2022-08-11T14:34:00.751Z,100072.58
2022-08-11T14:36:20.063Z,100069.22
2022-08-11T14:38:49.866Z,100065.85
2022-08-11T14:41:36.196Z,100069.44
2022-08-11T14:44:24.122Z,100068.96
2022-08-11T14:47:23.209Z,100060.81
2022-08-11T14:50:09.312Z,100056.27
2022-08-11T14:52:44.110Z,100054.61
2022-08-11T14:55:29.910Z,100058.52
2022-08-11T14:57:57.303Z,100059.55
2022-08-11T15:00:24.796Z,100063.73
2022-08-11T15:03:09.563Z,100064.55
2022-08-11T15:05:58.340Z,100061.27
2022-08-11T15:08:45.539Z,100062.07
2022-08-11T15:11:31.331Z,100061.83
2022-08-11T15:13:59.458Z,100059.98
2022-08-11T15:16:45.331Z,100059.81
2022-08-11T15:19:12.623Z,100060.86
2022-08-11T15:21:57.598Z,100059.40
2022-08-11T15:24:24.500Z,100060.30
2022-08-11T15:27:13.136Z,100056.99
2022-08-11T15:29:59.448Z,100056.48
2022-08-11T15:32:45.889Z,100056.34
2022-08-11T15:35:33.778Z,100051.87
2022-08-11T15:38:11.055Z,100049.52
2022-08-11T15:40:57.925Z,100048.30
2022-08-11T15:43:45.782Z,100048.94
2022-08-11T15:46:32.492Z,100045.14
2022-08-11T15:49:01.905Z,100045.27
2022-08-11T15:51:28.275Z,100042.24
2022-08-11T15:53:57.774Z,100042.89
2022-08-11T15:56:25.377Z,100044.05
2022-08-11T15:59:42.948Z,100041.06
2022-08-11T16:02:18.539Z,100038.66
2022-08-11T16:04:45.915Z,100034.89
2022-08-11T16:07:16.686Z,100036.98
2022-08-11T16:10:01.196Z,100034.27
2022-08-11T16:12:32.398Z,100032.40
2022-08-11T16:15:20.348Z,100030.71
2022-08-11T16:17:49.777Z,100031.10
2022-08-11T16:20:18.861Z,100027.08
2022-08-11T16:23:01.513Z,100026.73
2022-08-11T16:27:02.079Z,100024.90
2022-08-11T16:28:20.037Z,100027.65
2022-08-11T16:30:47.101Z,100029.03
2022-08-11T16:33:48.447Z,100024.85
2022-08-11T16:36:21.312Z,100024.02
2022-08-11T16:38:48.887Z,100025.95
2022-08-11T16:41:36.616Z,100022.93
2022-08-11T16:44:36.864Z,100021.01
2022-08-11T16:47:11.352Z,100021.23
2022-08-11T16:49:42.396Z,100024.98
2022-08-11T16:52:12.307Z,100024.65
2022-08-11T16:54:40.775Z,100031.41
2022-08-11T16:57:43.488Z,100027.95
2022-08-11T17:00:12.557Z,100027.96
2022-08-11T17:03:03.293Z,100028.36
2022-08-11T17:05:53.825Z,100031.33
2022-08-11T17:08:57.913Z,100031.07
2022-08-11T17:11:48.913Z,100034.44
2022-08-11T17:14:35.840Z,100033.10
2022-08-11T17:17:10.741Z,100029.66
2022-08-11T17:20:42.820Z,100032.88
2022-08-11T17:22:47.624Z,100028.14
2022-08-11T17:25:15.471Z,100031.72
2022-08-11T17:27:42.782Z,100033.15
2022-08-11T17:30:10.212Z,100032.81
2022-08-11T17:33:00.835Z,100033.88
2022-08-11T17:35:32.838Z,100038.06
2022-08-11T17:37:59.842Z,100036.69
2022-08-11T17:40:27.871Z,100039.96
2022-08-11T17:43:14.386Z,100037.09
2022-08-11T17:46:00.838Z,100038.23
2022-08-11T17:48:31.983Z,100043.79
2022-08-11T17:51:03.976Z,100048.55
2022-08-11T17:54:15.982Z,100047.47
2022-08-11T17:57:20.481Z,100052.33
2022-08-11T17:59:52.281Z,100056.55
2022-08-11T18:02:39.507Z,100055.60
2022-08-11T18:05:10.834Z,100054.84
2022-08-11T18:08:01.805Z,100058.77
2022-08-11T18:10:48.079Z,100059.73
2022-08-11T18:13:35.025Z,100059.29
2022-08-11T18:16:22.029Z,100067.11
2022-08-11T18:19:06.841Z,100073.03
2022-08-11T18:22:14.176Z,100077.82
2022-08-11T18:25:08.346Z,100081.28
2022-08-11T18:27:59.775Z,100082.58
2022-08-11T18:30:45.997Z,100087.08
2022-08-11T18:34:03.995Z,100086.15
2022-08-11T18:36:39.816Z,100088.41
2022-08-11T18:39:27.681Z,100089.54
2022-08-11T18:42:14.289Z,100093.15
2022-08-11T18:45:05.669Z,100093.02
2022-08-11T18:47:51.038Z,100092.89
2022-08-11T18:50:41.260Z,100098.67
2022-08-11T18:53:32.387Z,100101.14
2022-08-11T18:56:20.416Z,100105.23
2022-08-11T18:59:06.305Z,100103.46
2022-08-11T19:01:54.537Z,100102.12
2022-08-11T19:04:40.976Z,100104.50
2022-08-11T19:07:26.895Z,100106.67
2022-08-11T19:10:13.385Z,100106.22
2022-08-11T19:13:00.718Z,100109.36
2022-08-11T19:15:46.903Z,100109.08
2022-08-11T19:18:40.065Z,100109.48
2022-08-11T19:21:26.748Z,100112.64
2022-08-11T19:24:14.321Z,100115.40
2022-08-11T19:27:00.508Z,100114.67
2022-08-11T19:30:04.804Z,100119.90
2022-08-11T19:32:52.438Z,100125.05
2022-08-11T19:35:37.785Z,100127.89
2022-08-11T19:38:23.696Z,100125.69
2022-08-11T19:41:10.148Z,100128.55
2022-08-11T19:43:57.969Z,100126.95
2022-08-11T19:46:55.856Z,100127.52
2022-08-11T19:49:51.323Z,100123.05
2022-08-11T19:52:36.929Z,100118.02
2022-08-11T19:55:23.681Z,100114.37
2022-08-11T19:58:08.843Z,100109.77
2022-08-11T20:00:54.087Z,100108.30
2022-08-11T20:03:40.024Z,100114.72
2022-08-11T20:06:26.297Z,100116.58
2022-08-11T20:09:14.065Z,100116.44
2022-08-11T20:12:01.248Z,100125.25
2022-08-11T20:14:50.052Z,100123.55
2022-08-11T20:17:36.400Z,100122.42
2022-08-11T20:20:24.088Z,100129.08
2022-08-11T20:23:13.341Z,100128.56
2022-08-11T20:26:27.668Z,100133.80
2022-08-11T20:29:26.774Z,100133.85
2022-08-11T20:32:19.541Z,100132.61
2022-08-11T20:35:49.903Z,100134.02
2022-08-11T20:39:11.674Z,100134.11
2022-08-11T20:42:12.039Z,100135.92
2022-08-11T20:45:06.846Z,100138.84
2022-08-11T20:48:14.842Z,100136.83
2022-08-11T20:51:10.145Z,100135.20
2022-08-11T20:54:38.417Z,100134.52
2022-08-11T20:58:25.514Z,100146.14
2022-08-11T21:01:24.258Z,100148.14
2022-08-11T21:04:34.279Z,100149.92
2022-08-11T21:07:55.467Z,100147.44
2022-08-11T21:14:09.869Z,100153.09
2022-08-11T21:16:56.635Z,100155.98
2022-08-11T21:19:59.752Z,100161.35
2022-08-11T21:22:59.158Z,100165.69
2022-08-11T21:26:11.407Z,100169.35
2022-08-11T21:28:57.884Z,100166.98
2022-08-11T21:31:43.779Z,100170.16
2022-08-11T21:34:34.552Z,100171.92
2022-08-11T21:37:20.079Z,100176.77
2022-08-11T21:40:06.808Z,100173.45
2022-08-11T21:42:54.823Z,100173.52
2022-08-11T21:45:40.617Z,100172.77
2022-08-11T21:48:29.697Z,100175.98
2022-08-11T21:51:14.972Z,100175.27
2022-08-11T21:54:00.371Z,100175.02
2022-08-11T21:56:45.510Z,100170.29
2022-08-11T21:59:34.648Z,100169.09
2022-08-11T22:02:19.840Z,100166.73
2022-08-11T22:05:05.722Z,100166.27
2022-08-11T22:07:51.688Z,100167.39
2022-08-11T22:10:41.855Z,100166.23
2022-08-11T22:13:30.577Z,100165.60
2022-08-11T22:16:16.673Z,100162.59
2022-08-11T22:19:02.563Z,100164.55
2022-08-11T22:22:03.277Z,100164.02
2022-08-11T22:24:50.546Z,100166.02
2022-08-11T22:27:36.035Z,100169.64
2022-08-11T22:30:21.047Z,100171.02
2022-08-11T22:33:07.674Z,100170.95
2022-08-11T22:35:53.441Z,100171.91
2022-08-11T22:38:38.621Z,100172.94
2022-08-11T22:41:25.253Z,100172.84
2022-08-11T22:44:13.027Z,100167.21
2022-08-11T22:47:00.283Z,100164.02
2022-08-11T22:49:57.420Z,100164.45
2022-08-11T22:52:44.759Z,100163.24
2022-08-11T22:55:39.672Z,100155.88
2022-08-11T22:58:24.868Z,100159.66
2022-08-11T23:01:10.373Z,100160.78
2022-08-11T23:03:55.652Z,100161.02
2022-08-11T23:06:41.540Z,100156.16
2022-08-11T23:09:27.642Z,100154.23
2022-08-11T23:12:13.750Z,100152.70
2022-08-11T23:15:01.724Z,100152.42
2022-08-11T23:18:00.869Z,100150.42
2022-08-11T23:20:58.508Z,100150.05
2022-08-11T23:23:46.913Z,100147.73
2022-08-11T23:26:32.725Z,100148.02
2022-08-11T23:29:18.244Z,100151.48
2022-08-11T23:32:04.008Z,100152.34
2022-08-11T23:35:04.738Z,100152.16
2022-08-11T23:37:59.762Z,100155.10
2022-08-11T23:40:45.584Z,100156.41
2022-08-11T23:43:37.969Z,100159.32
2022-08-11T23:46:24.230Z,100155.98
2022-08-11T23:49:11.879Z,100154.84
2022-08-11T23:51:58.031Z,100152.38
2022-08-11T23:54:55.868Z,100159.61
2022-08-11T23:57:47.682Z,100161.69
